createdAt,value
2023-03-01T00:02:07.869Z,84.15
2023-03-01T00:05:10.766Z,84.07
2023-03-01T00:08:13.626Z,84.45
2023-03-01T00:11:22.647Z,84.53
2023-03-01T00:14:25.404Z,84.13
2023-03-01T00:17:28.785Z,84.46
2023-03-01T00:20:32.695Z,84.28
2023-03-01T00:23:37.076Z,84.73
2023-03-01T00:26:39.896Z,84.77
2023-03-01T00:29:43.773Z,84.50
2023-03-01T00:32:46.679Z,84.84
2023-03-01T00:35:49.467Z,85.04
2023-03-01T00:38:52.815Z,84.94
2023-03-01T00:41:57.542Z,85.13
2023-03-01T00:45:00.321Z,84.85
2023-03-01T00:48:03.114Z,84.91
2023-03-01T00:51:15.079Z,85.09
2023-03-01T00:54:17.941Z,85.51
2023-03-01T00:57:20.721Z,85.48
2023-03-01T01:00:23.700Z,85.64
2023-03-01T01:03:26.862Z,85.44
2023-03-01T01:06:36.396Z,85.33
2023-03-01T01:09:39.235Z,85.81
2023-03-01T01:12:41.992Z,85.94
2023-03-01T01:15:44.812Z,85.43
2023-03-01T01:18:47.975Z,85.93
2023-03-01T01:21:51.219Z,85.96
2023-03-01T01:24:54.880Z,86.23
2023-03-01T01:27:57.558Z,86.57
2023-03-01T01:31:01.265Z,86.52
2023-03-01T01:34:06.544Z,87.13
2023-03-01T01:37:09.317Z,86.82
2023-03-01T01:40:12.920Z,86.41
2023-03-01T01:43:21.041Z,86.43
2023-03-01T01:46:32.399Z,86.37
2023-03-01T01:49:50.049Z,86.27
2023-03-01T01:52:54.497Z,86.64
2023-03-01T01:56:01.610Z,86.30
2023-03-01T01:59:04.874Z,85.72
2023-03-01T02:02:07.801Z,86.24
2023-03-01T02:05:19.547Z,87.06
2023-03-01T02:08:26.130Z,86.86
2023-03-01T02:11:31.313Z,86.67
2023-03-01T02:14:34.053Z,86.28
2023-03-01T02:17:37.232Z,86.12
2023-03-01T02:21:14.470Z,86.16
2023-03-01T02:24:46.868Z,86.56
2023-03-01T02:28:16.691Z,86.81
2023-03-01T02:31:40.531Z,86.53
2023-03-01T02:34:44.211Z,86.40
2023-03-01T02:37:49.093Z,86.21
2023-03-01T02:40:54.288Z,86.30
2023-03-01T02:43:57.155Z,86.48
2023-03-01T02:47:05.082Z,86.19
2023-03-01T02:50:36.097Z,86.41
2023-03-01T02:53:50.909Z,86.99
2023-03-01T02:56:54.377Z,86.58
2023-03-01T03:00:09.165Z,86.28
2023-03-01T03:03:17.114Z,86.12
2023-03-01T03:06:20.774Z,86.55
2023-03-01T03:09:23.894Z,86.43
2023-03-01T03:12:26.804Z,87.02
2023-03-01T03:15:30.401Z,86.79
2023-03-01T03:18:33.356Z,86.43
2023-03-01T03:21:37.005Z,86.62
2023-03-01T03:24:39.775Z,87.65
2023-03-01T03:27:45.207Z,87.20
2023-03-01T03:30:50.755Z,87.81
2023-03-01T03:33:53.674Z,88.18
2023-03-01T03:37:03.084Z,88.50
2023-03-01T03:40:16.418Z,88.15
2023-03-01T03:43:22.758Z,89.10
2023-03-01T03:46:26.503Z,88.93
2023-03-01T03:49:29.222Z,89.18
2023-03-01T03:52:32.030Z,88.39
2023-03-01T03:55:35.847Z,88.67
2023-03-01T03:58:39.075Z,89.02
2023-03-01T04:01:42.355Z,88.23
2023-03-01T04:04:45.086Z,88.17
2023-03-01T04:07:47.779Z,88.19
2023-03-01T04:10:53.352Z,87.84
2023-03-01T04:13:59.050Z,88.44
2023-03-01T04:17:02.229Z,88.38
2023-03-01T04:20:06.783Z,88.87
2023-03-01T04:23:17.338Z,89.34
2023-03-01T04:26:21.474Z,89.32
2023-03-01T04:29:24.192Z,90.13
2023-03-01T04:32:27.431Z,90.01
2023-03-01T04:35:31.148Z,90.30
2023-03-01T04:38:34.992Z,89.48
2023-03-01T04:41:37.692Z,89.23
2023-03-01T04:44:40.740Z,89.17
2023-03-01T04:47:45.413Z,89.24
2023-03-01T04:50:49.809Z,87.97
2023-03-01T04:53:52.578Z,88.17
2023-03-01T04:56:56.025Z,87.92
2023-03-01T04:59:58.813Z,87.82
2023-03-01T05:03:02.471Z,87.78
2023-03-01T05:06:05.421Z,87.54
2023-03-01T05:09:08.350Z,87.46
2023-03-01T05:12:11.113Z,87.31
2023-03-01T05:15:14.098Z,87.22
2023-03-01T05:18:16.944Z,87.41
2023-03-01T05:21:19.777Z,87.38
2023-03-01T05:24:23.438Z,87.18
2023-03-01T05:27:26.312Z,87.02
2023-03-01T05:30:29.619Z,87.18
2023-03-01T05:33:32.657Z,87.06
2023-03-01T05:36:35.757Z,86.71
2023-03-01T05:39:38.648Z,86.47
2023-03-01T05:42:41.439Z,86.52
2023-03-01T05:45:44.276Z,86.00
2023-03-01T05:48:47.720Z,86.48
2023-03-01T05:51:52.841Z,86.29
2023-03-01T05:54:56.467Z,86.81
2023-03-01T05:58:01.339Z,86.29
2023-03-01T06:01:05.115Z,86.38
2023-03-01T06:04:07.832Z,85.69
2023-03-01T06:07:10.640Z,85.61
2023-03-01T06:10:14.662Z,85.72
2023-03-01T06:13:17.489Z,85.67
2023-03-01T06:16:20.210Z,85.36
2023-03-01T06:19:23.255Z,85.29
2023-03-01T06:22:25.978Z,85.44
2023-03-01T06:25:28.972Z,85.52
2023-03-01T06:28:31.767Z,84.83
2023-03-01T06:31:34.761Z,84.24
2023-03-01T06:34:37.574Z,83.96
2023-03-01T06:37:41.872Z,84.85
2023-03-01T06:40:46.243Z,84.29
2023-03-01T06:43:49.034Z,84.01
2023-03-01T06:46:51.831Z,83.78
2023-03-01T06:49:55.017Z,83.45
2023-03-01T06:52:58.421Z,83.80
2023-03-01T06:56:01.371Z,83.97
2023-03-01T06:59:04.583Z,83.65
2023-03-01T07:02:07.711Z,83.69
2023-03-01T07:05:10.790Z,84.25
2023-03-01T07:08:15.413Z,84.15
2023-03-01T07:11:20.353Z,83.70
2023-03-01T07:14:25.565Z,83.72
2023-03-01T07:17:28.358Z,83.93
2023-03-01T07:20:31.088Z,84.02
2023-03-01T07:23:33.954Z,83.92
2023-03-01T07:26:37.014Z,84.03
2023-03-01T07:29:39.878Z,83.45
2023-03-01T07:32:43.151Z,83.15
2023-03-01T07:35:45.925Z,83.11
2023-03-01T07:38:48.739Z,84.44
2023-03-01T07:41:52.587Z,83.84
2023-03-01T07:44:58.438Z,83.22
2023-03-01T07:48:01.313Z,83.37
2023-03-01T07:51:06.661Z,82.67
2023-03-01T07:54:09.548Z,83.79
2023-03-01T07:57:12.638Z,82.89
2023-03-01T08:00:15.764Z,82.52
2023-03-01T08:03:22.721Z,82.40
2023-03-01T08:06:25.609Z,82.47
2023-03-01T08:09:28.437Z,82.35
2023-03-01T08:12:31.353Z,83.20
2023-03-01T08:15:34.132Z,83.29
2023-03-01T08:18:37.097Z,82.38
2023-03-01T08:21:39.990Z,81.97
2023-03-01T08:24:42.798Z,81.56
2023-03-01T08:27:45.626Z,81.51
2023-03-01T08:30:48.497Z,81.42
2023-03-01T08:33:56.403Z,81.02
2023-03-01T08:36:59.326Z,80.54
2023-03-01T08:40:04.940Z,79.94
2023-03-01T08:43:08.315Z,80.08
2023-03-01T08:46:15.649Z,80.26
2023-03-01T08:49:20.033Z,79.67
2023-03-01T08:52:23.580Z,79.80
2023-03-01T08:55:26.606Z,78.90
2023-03-01T08:58:30.105Z,78.33
2023-03-01T09:01:32.988Z,77.81
2023-03-01T09:04:35.824Z,78.47
2023-03-01T09:07:38.563Z,78.71
2023-03-01T09:10:41.501Z,78.67
2023-03-01T09:13:46.094Z,78.06
2023-03-01T09:16:48.901Z,78.03
2023-03-01T09:19:51.814Z,77.80
2023-03-01T09:22:54.657Z,77.85
2023-03-01T09:25:57.658Z,77.64
2023-03-01T09:29:00.611Z,77.08
2023-03-01T09:32:04.136Z,77.30
2023-03-01T09:35:07.601Z,77.80
2023-03-01T09:38:10.715Z,77.11
2023-03-01T09:41:32.205Z,76.42
2023-03-01T09:44:43.892Z,75.71
2023-03-01T09:47:47.030Z,75.63
2023-03-01T09:50:52.409Z,75.53
2023-03-01T09:53:57.116Z,76.34
2023-03-01T09:57:08.064Z,76.26
2023-03-01T10:00:20.748Z,75.94
2023-03-01T10:03:51.967Z,76.22
2023-03-01T10:07:31.948Z,76.47
2023-03-01T10:10:38.592Z,76.46
2023-03-01T10:14:06.380Z,75.80
2023-03-01T10:17:36.620Z,76.29
2023-03-01T10:20:49.395Z,75.57
2023-03-01T10:23:54.645Z,75.66
2023-03-01T10:27:01.880Z,75.65
2023-03-01T10:30:42.655Z,75.96
2023-03-01T10:33:45.661Z,75.06
2023-03-01T10:36:52.189Z,75.47
2023-03-01T10:40:10.969Z,74.70
2023-03-01T10:43:13.957Z,73.68
2023-03-01T10:46:29.089Z,73.46
2023-03-01T10:49:32.468Z,74.17
2023-03-01T10:52:42.546Z,73.18
2023-03-01T10:55:45.384Z,72.95
2023-03-01T10:59:06.634Z,73.79
2023-03-01T11:02:25.417Z,74.52
2023-03-01T11:05:31.456Z,73.42
2023-03-01T11:08:56.339Z,71.46
2023-03-01T11:12:01.731Z,72.48
2023-03-01T11:15:04.912Z,72.40
2023-03-01T11:18:21.724Z,70.92
2023-03-01T11:21:28.101Z,70.74
2023-03-01T11:24:43.703Z,71.34
2023-03-01T11:27:48.154Z,73.17
2023-03-01T11:31:09.084Z,71.62
2023-03-01T11:34:33.254Z,70.02
2023-03-01T11:38:01.919Z,68.90
2023-03-01T11:41:16.545Z,68.49
2023-03-01T11:44:25.223Z,68.60
2023-03-01T11:48:03.247Z,67.02
2023-03-01T11:51:15.757Z,67.08
2023-03-01T11:54:40.781Z,68.25
2023-03-01T11:58:05.620Z,66.43
2023-03-01T12:01:20.201Z,66.69
2023-03-01T12:04:43.626Z,67.59
2023-03-01T12:08:01.306Z,67.61
2023-03-01T12:11:13.601Z,68.25
2023-03-01T12:14:34.807Z,68.15
2023-03-01T12:17:56.799Z,67.47
2023-03-01T12:21:18.734Z,68.34
2023-03-01T12:24:47.660Z,67.43
2023-03-01T12:28:06.092Z,67.88
2023-03-01T12:31:35.306Z,69.35
2023-03-01T12:35:05.046Z,69.49
2023-03-01T12:38:26.597Z,67.31
2023-03-01T12:41:29.927Z,68.30
2023-03-01T12:45:08.329Z,71.09
2023-03-01T12:48:41.517Z,68.53
2023-03-01T12:51:57.490Z,70.09
2023-03-01T12:55:03.735Z,71.38
2023-03-01T12:58:26.286Z,70.53
2023-03-01T13:01:53.344Z,70.10
2023-03-01T13:05:08.516Z,70.41
2023-03-01T13:08:21.756Z,72.27
2023-03-01T13:11:25.096Z,70.89
2023-03-01T13:14:27.892Z,70.04
2023-03-01T13:17:43.122Z,69.28
2023-03-01T13:20:50.356Z,71.50
2023-03-01T13:23:53.188Z,70.77
2023-03-01T13:27:08.011Z,70.69
2023-03-01T13:30:35.991Z,70.89
2023-03-01T13:33:48.019Z,70.55
2023-03-01T13:36:51.310Z,70.13
2023-03-01T13:39:54.348Z,70.04
2023-03-01T13:43:06.298Z,70.09
2023-03-01T13:46:13.245Z,69.47
2023-03-01T13:49:20.939Z,68.92
2023-03-01T13:52:43.641Z,69.99
2023-03-01T13:55:52.097Z,70.06
2023-03-01T13:59:20.696Z,69.93
2023-03-01T14:02:23.861Z,70.14
2023-03-01T14:05:27.719Z,70.81
2023-03-01T14:08:32.552Z,70.66
2023-03-01T14:11:42.056Z,69.76
2023-03-01T14:14:56.177Z,70.83
2023-03-01T14:18:16.155Z,70.49
2023-03-01T14:21:19.230Z,71.21
2023-03-01T14:24:24.225Z,70.80
2023-03-01T14:27:37.358Z,70.88
2023-03-01T14:30:45.202Z,71.01
2023-03-01T14:33:56.493Z,70.56
2023-03-01T14:37:29.444Z,70.05
2023-03-01T14:40:37.229Z,70.36
2023-03-01T14:43:46.088Z,70.35
2023-03-01T14:46:55.225Z,69.83
2023-03-01T14:50:02.347Z,71.05
2023-03-01T14:53:08.946Z,69.95
2023-03-01T14:56:18.605Z,70.94
2023-03-01T14:59:24.697Z,70.52
2023-03-01T15:02:29.884Z,71.21
2023-03-01T15:05:34.559Z,71.70
2023-03-01T15:08:42.250Z,71.63
2023-03-01T15:11:45.790Z,71.73
2023-03-01T15:15:02.547Z,71.54
2023-03-01T15:18:17.929Z,72.15
2023-03-01T15:21:25.667Z,71.52
2023-03-01T15:24:30.014Z,72.00
2023-03-01T15:27:32.812Z,71.41
2023-03-01T15:30:38.860Z,72.08
2023-03-01T15:33:48.348Z,71.59
2023-03-01T15:36:53.027Z,71.39
2023-03-01T15:39:58.473Z,71.72
2023-03-01T15:43:04.121Z,71.65
2023-03-01T15:46:06.938Z,72.18
2023-03-01T15:49:54.948Z,72.29
2023-03-01T15:53:00.514Z,72.65
2023-03-01T15:56:03.415Z,73.03
2023-03-01T15:59:07.765Z,72.63
2023-03-01T16:02:13.690Z,72.83
2023-03-01T16:05:23.130Z,72.59
2023-03-01T16:08:25.977Z,72.89
2023-03-01T16:11:29.491Z,72.91
2023-03-01T16:14:32.821Z,72.98
2023-03-01T16:17:35.771Z,72.87
2023-03-01T16:20:41.315Z,73.02
2023-03-01T16:23:45.445Z,73.68
2023-03-01T16:26:48.213Z,73.68
2023-03-01T16:29:51.273Z,73.85
2023-03-01T16:32:54.447Z,73.80
2023-03-01T16:35:57.673Z,73.88
2023-03-01T16:39:04.476Z,73.70
2023-03-01T16:42:07.471Z,74.39
2023-03-01T16:45:23.032Z,74.94
2023-03-01T16:48:27.211Z,75.56
2023-03-01T16:51:32.198Z,75.92
2023-03-01T16:54:35.738Z,76.31
2023-03-01T16:57:39.242Z,76.64
2023-03-01T17:00:44.589Z,77.16
2023-03-01T17:03:50.432Z,77.12
2023-03-01T17:06:53.465Z,77.18
2023-03-01T17:09:56.562Z,77.31
2023-03-01T17:12:59.494Z,77.59
2023-03-01T17:16:05.507Z,77.78
2023-03-01T17:19:08.473Z,78.33
2023-03-01T17:22:14.079Z,78.07
2023-03-01T17:25:16.972Z,78.15
2023-03-01T17:28:20.087Z,78.25
2023-03-01T17:31:25.206Z,78.22
2023-03-01T17:34:28.522Z,77.82
2023-03-01T17:37:31.498Z,77.97
2023-03-01T17:40:36.137Z,78.33
2023-03-01T17:43:39.196Z,77.90
2023-03-01T17:46:42.211Z,78.02
2023-03-01T17:49:45.224Z,77.46
2023-03-01T17:52:48.423Z,77.61
2023-03-01T17:56:00.507Z,77.11
2023-03-01T17:59:04.808Z,76.99
2023-03-01T18:02:07.788Z,76.69
2023-03-01T18:05:11.452Z,76.45
2023-03-01T18:08:14.755Z,76.49
2023-03-01T18:11:19.457Z,76.72
2023-03-01T18:14:22.794Z,76.76
2023-03-01T18:17:25.900Z,76.77
2023-03-01T18:20:30.954Z,76.65
2023-03-01T18:23:35.474Z,76.71
2023-03-01T18:26:39.954Z,76.42
2023-03-01T18:29:43.472Z,76.80
2023-03-01T18:32:46.526Z,76.17
2023-03-01T18:35:50.255Z,75.04
2023-03-01T18:38:56.254Z,74.03
2023-03-01T18:41:59.273Z,72.88
2023-03-01T18:45:02.331Z,73.03
2023-03-01T18:48:07.179Z,71.71
2023-03-01T18:51:18.802Z,70.91
2023-03-01T18:54:22.105Z,70.73
2023-03-01T18:57:25.177Z,70.31
2023-03-01T19:00:28.778Z,70.29
2023-03-01T19:03:31.939Z,69.85
2023-03-01T19:06:35.477Z,69.66
2023-03-01T19:09:40.404Z,69.93
2023-03-01T19:12:43.538Z,69.54
2023-03-01T19:15:46.664Z,69.61
2023-03-01T19:18:51.697Z,69.43
2023-03-01T19:22:05.189Z,69.19
2023-03-01T19:25:09.484Z,68.92
2023-03-01T19:28:14.079Z,68.66
2023-03-01T19:31:24.312Z,68.91
2023-03-01T19:34:30.777Z,69.04
2023-03-01T19:37:35.461Z,68.89
2023-03-01T19:40:38.416Z,68.91
2023-03-01T19:43:42.799Z,69.03
2023-03-01T19:46:46.343Z,68.77
2023-03-01T19:49:49.413Z,68.66
2023-03-01T19:52:52.755Z,68.95
2023-03-01T19:56:00.311Z,69.04
2023-03-01T19:59:05.120Z,68.96
2023-03-01T20:02:09.736Z,68.95
2023-03-01T20:05:12.881Z,69.61
2023-03-01T20:08:15.964Z,68.73
2023-03-01T20:11:20.349Z,69.63
2023-03-01T20:14:24.195Z,69.35
2023-03-01T20:17:27.369Z,69.57
2023-03-01T20:20:32.605Z,69.68
2023-03-01T20:23:36.253Z,69.70
2023-03-01T20:26:41.084Z,69.66
2023-03-01T20:29:46.090Z,69.92
2023-03-01T20:32:49.118Z,69.92
2023-03-01T20:35:53.524Z,69.78
2023-03-01T20:38:57.375Z,69.88
2023-03-01T20:42:00.682Z,69.50
2023-03-01T20:45:04.788Z,69.49
2023-03-01T20:48:09.393Z,70.07
2023-03-01T20:51:13.841Z,69.86
2023-03-01T20:54:17.114Z,69.94
2023-03-01T20:57:19.999Z,70.08
2023-03-01T21:00:22.737Z,71.05
2023-03-01T21:03:26.340Z,71.06
2023-03-01T21:06:29.527Z,71.32
2023-03-01T21:09:32.603Z,71.40
2023-03-01T21:12:35.447Z,71.39
2023-03-01T21:15:38.435Z,71.30
2023-03-01T21:18:42.114Z,71.46
2023-03-01T21:21:44.983Z,71.34
2023-03-01T21:24:50.152Z,71.47
2023-03-01T21:27:53.907Z,71.44
2023-03-01T21:30:57.785Z,71.51
2023-03-01T21:34:06.560Z,71.28
2023-03-01T21:37:10.609Z,71.31
2023-03-01T21:40:13.905Z,71.00
2023-03-01T21:43:18.772Z,71.37
2023-03-01T21:46:24.570Z,71.41
2023-03-01T21:49:27.691Z,71.51
2023-03-01T21:52:30.451Z,70.98
2023-03-01T21:55:34.401Z,70.93
2023-03-01T21:58:37.257Z,70.67
2023-03-01T22:01:40.517Z,71.02
2023-03-01T22:04:43.214Z,70.59
2023-03-01T22:07:45.993Z,70.53
2023-03-01T22:10:48.960Z,70.81
2023-03-01T22:13:53.169Z,70.81
2023-03-01T22:16:56.235Z,69.97
2023-03-01T22:19:59.236Z,69.84
2023-03-01T22:23:02.185Z,69.83
2023-03-01T22:26:05.098Z,69.68
2023-03-01T22:29:16.471Z,69.36
2023-03-01T22:32:19.350Z,69.87
2023-03-01T22:35:22.236Z,70.29
2023-03-01T22:38:25.055Z,70.78
2023-03-01T22:41:29.593Z,70.38
2023-03-01T22:44:32.869Z,70.41
2023-03-01T22:47:37.854Z,70.83
2023-03-01T22:50:45.714Z,71.63
2023-03-01T22:53:48.661Z,70.87
2023-03-01T22:56:51.641Z,70.86
2023-03-01T22:59:54.489Z,70.79
2023-03-01T23:02:57.782Z,70.85
2023-03-01T23:06:00.526Z,70.42
2023-03-01T23:09:04.652Z,70.58
2023-03-01T23:12:09.440Z,70.31
2023-03-01T23:15:12.634Z,70.55
2023-03-01T23:18:15.436Z,70.60
2023-03-01T23:21:19.679Z,70.32
2023-03-01T23:24:31.480Z,71.63
2023-03-01T23:27:37.568Z,73.71
2023-03-01T23:30:41.169Z,73.45
2023-03-01T23:33:45.410Z,73.35
2023-03-01T23:36:48.221Z,73.08
2023-03-01T23:39:51.090Z,73.31
2023-03-01T23:42:53.892Z,73.35
2023-03-01T23:45:56.669Z,73.22
2023-03-01T23:49:00.149Z,72.62
2023-03-01T23:52:02.996Z,72.57
2023-03-01T23:55:08.742Z,72.46
2023-03-01T23:58:11.789Z,72.23
